createdAt,value
2019-02-18T00:00:36.257Z,19.05
2019-02-18T00:01:35.863Z,18.91
2019-02-18T00:02:35.818Z,18.96
2019-02-18T00:03:35.806Z,19.02
2019-02-18T00:04:35.795Z,18.93
2019-02-18T00:05:35.789Z,19.05
2019-02-18T00:06:35.807Z,18.99
2019-02-18T00:07:35.762Z,18.96
2019-02-18T00:08:35.756Z,18.89
2019-02-18T00:09:35.744Z,18.90
2019-02-18T00:10:35.769Z,18.96
2019-02-18T00:11:35.768Z,18.96
2019-02-18T00:12:35.720Z,18.94
2019-02-18T00:13:35.710Z,18.96
2019-02-18T00:14:35.704Z,18.97
2019-02-18T00:15:35.783Z,18.90
2019-02-18T00:16:35.659Z,18.96
2019-02-18T00:17:35.649Z,18.94
2019-02-18T00:18:35.648Z,18.87
2019-02-18T00:19:35.774Z,19.02
2019-02-18T00:20:35.629Z,19.02
2019-02-18T00:21:35.602Z,18.96
2019-02-18T00:22:35.774Z,18.91
2019-02-18T00:23:35.613Z,19.06
2019-02-18T00:24:35.596Z,18.94
2019-02-18T00:25:35.570Z,18.96
2019-02-18T00:26:35.547Z,18.90
2019-02-18T00:27:35.549Z,18.94
2019-02-18T00:28:36.971Z,18.94
2019-02-18T00:29:35.530Z,18.94
2019-02-18T00:30:35.519Z,18.90
2019-02-18T00:31:35.500Z,18.90
2019-02-18T00:32:35.494Z,18.97
2019-02-18T00:33:35.499Z,19.06
2019-02-18T00:34:35.470Z,19.06
2019-02-18T00:35:35.458Z,18.93
2019-02-18T00:36:35.438Z,18.93
2019-02-18T00:37:35.450Z,18.93
2019-02-18T00:38:35.424Z,18.96
2019-02-18T00:39:35.407Z,19.02
2019-02-18T00:40:35.780Z,18.99
2019-02-18T00:41:35.384Z,18.93
2019-02-18T00:42:35.783Z,18.97
2019-02-18T00:43:35.372Z,18.96
2019-02-18T00:44:35.364Z,18.96
2019-02-18T00:45:35.356Z,18.96
2019-02-18T00:46:35.775Z,18.94
2019-02-18T00:47:35.334Z,18.90
2019-02-18T00:48:35.317Z,19.02
2019-02-18T00:49:35.300Z,19.02
2019-02-18T00:50:35.313Z,18.93
2019-02-18T00:51:35.287Z,18.93
2019-02-18T00:52:35.278Z,18.90
2019-02-18T00:53:35.269Z,18.94
2019-02-18T00:54:35.321Z,18.94
2019-02-18T00:55:35.256Z,18.90
2019-02-18T00:56:35.227Z,18.93
2019-02-18T00:57:35.206Z,18.94
2019-02-18T00:58:35.203Z,18.93
2019-02-18T00:59:35.284Z,18.93
2019-02-18T01:00:35.302Z,18.93
2019-02-18T01:01:35.161Z,18.96
2019-02-18T01:02:35.163Z,18.94
2019-02-18T01:03:35.145Z,19.01
2019-02-18T01:04:35.143Z,18.94
2019-02-18T01:05:35.119Z,18.94
2019-02-18T01:06:35.275Z,18.96
2019-02-18T01:07:35.362Z,18.91
2019-02-18T01:08:35.122Z,18.97
2019-02-18T01:09:35.076Z,18.97
2019-02-18T01:10:35.097Z,18.93
2019-02-18T01:11:35.059Z,18.93
2019-02-18T01:12:35.067Z,18.93
2019-02-18T01:13:35.049Z,18.87
2019-02-18T01:14:35.023Z,18.86
2019-02-18T01:15:35.040Z,18.96
2019-02-18T01:16:35.023Z,18.93
2019-02-18T01:17:34.996Z,18.93
2019-02-18T01:18:34.992Z,18.83
2019-02-18T01:19:34.979Z,18.86
2019-02-18T01:20:35.281Z,18.87
2019-02-18T01:21:34.950Z,18.93
2019-02-18T01:22:34.936Z,18.93
2019-02-18T01:23:34.940Z,18.87
2019-02-18T01:24:34.926Z,18.84
2019-02-18T01:25:34.919Z,18.93
2019-02-18T01:26:34.900Z,19.01
2019-02-18T01:27:34.885Z,18.94
2019-02-18T01:28:34.900Z,18.94
2019-02-18T01:29:34.854Z,18.93
2019-02-18T01:30:34.863Z,18.93
2019-02-18T01:31:34.861Z,18.91
2019-02-18T01:32:35.297Z,18.93
2019-02-18T01:33:34.827Z,18.86
2019-02-18T01:34:34.815Z,18.83
2019-02-18T01:35:34.809Z,18.91
2019-02-18T01:36:34.792Z,18.94
2019-02-18T01:37:44.871Z,18.94
2019-02-18T01:38:35.764Z,18.83
2019-02-18T01:39:34.750Z,18.94
2019-02-18T01:40:34.741Z,18.93
2019-02-18T01:41:34.758Z,18.86
2019-02-18T01:42:34.723Z,18.83
2019-02-18T01:43:34.706Z,18.96
2019-02-18T01:44:34.720Z,18.94
2019-02-18T01:45:34.694Z,18.83
2019-02-18T01:46:34.682Z,18.90
2019-02-18T01:47:34.801Z,19.02
2019-02-18T01:48:34.656Z,18.91
2019-02-18T01:49:34.664Z,18.99
2019-02-18T01:50:34.633Z,18.83
2019-02-18T01:51:34.635Z,18.96
2019-02-18T01:52:34.618Z,18.97
2019-02-18T01:53:34.791Z,18.96
2019-02-18T01:54:34.822Z,18.89
2019-02-18T01:55:34.577Z,18.94
2019-02-18T01:56:34.570Z,18.90
2019-02-18T01:57:34.579Z,18.94
2019-02-18T01:58:34.541Z,18.89
2019-02-18T01:59:34.797Z,18.87
2019-02-18T02:00:34.537Z,18.82
2019-02-18T02:01:34.527Z,18.89
2019-02-18T02:02:34.540Z,18.87
2019-02-18T02:03:34.504Z,18.89
2019-02-18T02:04:34.799Z,18.89
2019-02-18T02:05:34.476Z,18.83
2019-02-18T02:06:34.483Z,18.84
2019-02-18T02:07:34.451Z,18.86
2019-02-18T02:08:34.452Z,18.82
2019-02-18T02:09:34.432Z,18.87
2019-02-18T02:10:34.419Z,18.83
2019-02-18T02:11:34.403Z,18.82
2019-02-18T02:12:34.398Z,18.94
2019-02-18T02:13:34.390Z,18.89
2019-02-18T02:14:34.380Z,18.82
2019-02-18T02:15:34.804Z,18.83
2019-02-18T02:16:34.349Z,18.90
2019-02-18T02:17:34.340Z,18.84
2019-02-18T02:18:34.377Z,18.90
2019-02-18T02:19:34.324Z,18.86
2019-02-18T02:20:34.308Z,18.83
2019-02-18T02:21:34.314Z,18.84
2019-02-18T02:22:34.287Z,18.91
2019-02-18T02:23:34.277Z,18.84
2019-02-18T02:24:34.287Z,18.89
2019-02-18T02:25:34.261Z,18.96
2019-02-18T02:26:34.241Z,18.86
2019-02-18T02:27:34.235Z,18.87
2019-02-18T02:28:34.221Z,18.89
2019-02-18T02:29:34.299Z,18.84
2019-02-18T02:30:34.212Z,18.86
2019-02-18T02:31:34.195Z,18.83
2019-02-18T02:32:34.199Z,18.86
2019-02-18T02:33:34.183Z,18.86
2019-02-18T02:34:34.167Z,18.97
2019-02-18T02:35:34.153Z,18.87
2019-02-18T02:36:34.158Z,18.86
2019-02-18T02:37:34.123Z,18.86
2019-02-18T02:38:34.113Z,18.83
2019-02-18T02:39:34.108Z,18.89
2019-02-18T02:40:34.093Z,18.86
2019-02-18T02:41:34.117Z,18.89
2019-02-18T02:42:34.084Z,18.90
2019-02-18T02:43:34.068Z,18.78
2019-02-18T02:44:34.054Z,18.90
2019-02-18T02:45:34.043Z,18.87
2019-02-18T02:46:34.300Z,18.87
2019-02-18T02:47:34.296Z,18.87
2019-02-18T02:48:33.997Z,18.94
2019-02-18T02:49:33.987Z,18.89
2019-02-18T02:50:33.979Z,18.84
2019-02-18T02:51:33.967Z,18.89
2019-02-18T02:52:34.308Z,18.89
2019-02-18T02:53:33.953Z,18.83
2019-02-18T02:54:33.933Z,18.89
2019-02-18T02:55:33.936Z,18.89
2019-02-18T02:56:33.920Z,18.84
2019-02-18T02:57:33.924Z,18.84
2019-02-18T02:58:33.899Z,18.87
2019-02-18T02:59:33.881Z,18.84
2019-02-18T03:00:33.872Z,18.89
2019-02-18T03:01:33.861Z,18.83
2019-02-18T03:02:33.870Z,18.83
2019-02-18T03:03:33.848Z,18.83
2019-02-18T03:04:33.831Z,18.83
2019-02-18T03:05:33.819Z,18.87
2019-02-18T03:06:33.807Z,18.83
2019-02-18T03:07:33.803Z,18.90
2019-02-18T03:08:33.795Z,18.89
2019-02-18T03:09:33.783Z,18.89
2019-02-18T03:10:33.762Z,18.94
2019-02-18T03:11:33.755Z,18.94
2019-02-18T03:12:33.731Z,18.93
2019-02-18T03:13:33.740Z,18.96
2019-02-18T03:14:33.718Z,19.02
2019-02-18T03:15:33.716Z,19.02
2019-02-18T03:16:33.695Z,19.13
2019-02-18T03:17:33.687Z,19.02
2019-02-18T03:18:33.805Z,19.21
2019-02-18T03:19:33.670Z,19.23
2019-02-18T03:20:33.656Z,19.17
2019-02-18T03:21:33.638Z,19.32
2019-02-18T03:22:33.643Z,19.34
2019-02-18T03:23:33.636Z,19.40
2019-02-18T03:24:33.621Z,19.43
2019-02-18T03:25:33.618Z,19.45
2019-02-18T03:26:33.584Z,19.50
2019-02-18T03:27:33.592Z,19.53
2019-02-18T03:28:33.564Z,19.68
2019-02-18T03:29:33.574Z,19.78
2019-02-18T03:30:33.558Z,19.75
2019-02-18T03:31:33.542Z,19.83
2019-02-18T03:32:33.531Z,19.86
2019-02-18T03:33:33.539Z,19.92
2019-02-18T03:34:33.804Z,19.90
2019-02-18T03:35:33.484Z,19.98
2019-02-18T03:36:33.488Z,20.05
2019-02-18T03:37:33.463Z,20.17
2019-02-18T03:38:33.816Z,20.13
2019-02-18T03:39:33.481Z,20.22
2019-02-18T03:40:33.446Z,20.35
2019-02-18T03:41:33.428Z,20.46
2019-02-18T03:42:33.430Z,20.50
2019-02-18T03:43:33.410Z,20.51
2019-02-18T03:44:33.816Z,20.63
2019-02-18T03:45:33.383Z,20.71
2019-02-18T03:46:33.828Z,20.72
2019-02-18T03:47:33.360Z,20.75
2019-02-18T03:48:33.356Z,20.87
2019-02-18T03:49:33.333Z,20.85
2019-02-18T03:50:33.328Z,20.97
2019-02-18T03:51:33.830Z,20.98
2019-02-18T03:52:33.296Z,21.13
2019-02-18T03:53:33.312Z,21.13
2019-02-18T03:54:33.278Z,21.12
2019-02-18T03:55:33.264Z,21.16
2019-02-18T03:56:33.301Z,21.13
2019-02-18T03:57:33.323Z,21.31
2019-02-18T03:58:33.247Z,21.26
2019-02-18T03:59:33.232Z,21.38
2019-02-18T04:00:33.229Z,21.36
2019-02-18T04:01:33.214Z,21.42
2019-02-18T04:02:33.321Z,21.43
2019-02-18T04:03:33.202Z,21.53
2019-02-18T04:04:33.826Z,21.58
2019-02-18T04:05:33.175Z,21.61
2019-02-18T04:06:33.146Z,21.55
2019-02-18T04:07:33.144Z,21.59
2019-02-18T04:08:42.255Z,21.67
2019-02-18T04:09:34.157Z,21.66
2019-02-18T04:10:33.103Z,21.70
2019-02-18T04:11:33.096Z,21.83
2019-02-18T04:12:33.087Z,21.77
2019-02-18T04:13:33.091Z,21.74
2019-02-18T04:14:33.327Z,21.79
2019-02-18T04:15:33.060Z,21.89
2019-02-18T04:16:33.048Z,21.96
2019-02-18T04:17:33.040Z,22.04
2019-02-18T04:18:33.317Z,21.98
2019-02-18T04:19:33.036Z,21.98
2019-02-18T04:20:32.994Z,22.04
2019-02-18T04:21:32.984Z,22.06
2019-02-18T04:22:32.978Z,22.09
2019-02-18T04:23:33.324Z,22.11
2019-02-18T04:24:32.955Z,22.11
2019-02-18T04:25:32.962Z,22.23
2019-02-18T04:26:32.933Z,22.23
2019-02-18T04:27:32.924Z,22.15
2019-02-18T04:28:33.337Z,22.29
2019-02-18T04:29:32.932Z,22.27
2019-02-18T04:30:32.896Z,22.33
2019-02-18T04:31:32.888Z,22.39
2019-02-18T04:32:32.872Z,22.31
2019-02-18T04:33:32.856Z,22.41
2019-02-18T04:34:33.355Z,22.45
2019-02-18T04:35:33.325Z,22.44
2019-02-18T04:36:32.840Z,22.48
2019-02-18T04:37:32.823Z,22.42
2019-02-18T04:38:32.808Z,22.41
2019-02-18T04:39:32.798Z,22.49
2019-02-18T04:40:32.808Z,22.45
2019-02-18T04:41:32.791Z,22.48
2019-02-18T04:42:32.759Z,22.42
2019-02-18T04:43:32.751Z,22.59
2019-02-18T04:44:32.745Z,22.54
2019-02-18T04:45:32.829Z,22.61
2019-02-18T04:46:32.826Z,22.59
2019-02-18T04:47:32.715Z,22.46
2019-02-18T04:48:32.695Z,22.51
2019-02-18T04:49:32.688Z,22.44
2019-02-18T04:50:32.677Z,22.45
2019-02-18T04:51:32.668Z,22.49
2019-02-18T04:52:32.666Z,22.46
2019-02-18T04:53:32.642Z,22.45
2019-02-18T04:54:32.628Z,22.44
2019-02-18T04:55:32.635Z,22.52
2019-02-18T04:56:32.612Z,22.45
2019-02-18T04:57:32.615Z,22.45
2019-02-18T04:58:32.601Z,22.44
2019-02-18T04:59:32.575Z,22.57
2019-02-18T05:00:32.588Z,22.45
2019-02-18T05:01:32.549Z,22.54
2019-02-18T05:02:32.568Z,22.52
2019-02-18T05:03:32.541Z,22.46
2019-02-18T05:04:32.836Z,22.46
2019-02-18T05:05:32.515Z,22.46
2019-02-18T05:06:32.500Z,22.38
2019-02-18T05:07:32.487Z,22.36
2019-02-18T05:08:32.469Z,22.41
2019-02-18T05:09:32.838Z,22.33
2019-02-18T05:10:32.452Z,22.29
2019-02-18T05:11:32.480Z,22.36
2019-02-18T05:12:32.459Z,22.44
2019-02-18T05:13:32.422Z,22.35
2019-02-18T05:14:32.412Z,22.24
2019-02-18T05:15:32.409Z,22.26
2019-02-18T05:16:32.398Z,22.29
2019-02-18T05:17:32.393Z,22.27
2019-02-18T05:18:32.387Z,22.24
2019-02-18T05:19:32.379Z,22.27
2019-02-18T05:20:32.341Z,22.27
2019-02-18T05:21:32.336Z,22.26
2019-02-18T05:22:32.844Z,22.26
2019-02-18T05:23:32.312Z,22.19
2019-02-18T05:24:32.338Z,22.29
2019-02-18T05:25:32.299Z,22.19
2019-02-18T05:26:32.290Z,22.21
2019-02-18T05:27:33.502Z,22.21
2019-02-18T05:28:32.266Z,22.11
2019-02-18T05:29:32.353Z,22.11
2019-02-18T05:30:32.250Z,22.19
2019-02-18T05:31:32.260Z,22.19
2019-02-18T05:32:32.222Z,22.12
2019-02-18T05:33:32.215Z,22.09
2019-02-18T05:34:32.206Z,22.05
2019-02-18T05:35:32.347Z,22.09
2019-02-18T05:36:32.184Z,22.12
2019-02-18T05:37:32.173Z,22.11
2019-02-18T05:38:32.167Z,22.09
2019-02-18T05:39:32.823Z,22.09
2019-02-18T05:40:32.951Z,22.05
2019-02-18T05:41:32.119Z,22.06
2019-02-18T05:42:32.106Z,21.98
2019-02-18T05:43:32.119Z,22.02
2019-02-18T05:44:32.093Z,22.04
2019-02-18T05:45:32.072Z,21.93
2019-02-18T05:46:32.347Z,21.93
2019-02-18T05:47:32.061Z,21.94
2019-02-18T05:48:34.033Z,21.85
2019-02-18T05:49:32.037Z,21.89
2019-02-18T05:50:32.036Z,21.89
2019-02-18T05:51:32.019Z,21.90
2019-02-18T05:52:32.001Z,21.90
2019-02-18T05:53:32.357Z,21.86
2019-02-18T05:54:31.979Z,21.93
2019-02-18T05:55:31.972Z,21.93
2019-02-18T05:56:31.958Z,21.93
2019-02-18T05:57:31.945Z,21.79
2019-02-18T05:58:32.345Z,21.86
2019-02-18T05:59:31.972Z,21.82
2019-02-18T06:00:31.936Z,21.85
2019-02-18T06:01:31.901Z,21.81
2019-02-18T06:02:31.935Z,21.74
2019-02-18T06:03:31.912Z,21.81
2019-02-18T06:04:32.349Z,21.83
2019-02-18T06:05:32.830Z,21.85
2019-02-18T06:06:31.849Z,21.77
2019-02-18T06:07:31.859Z,21.90
2019-02-18T06:08:31.830Z,21.77
2019-02-18T06:09:31.847Z,21.83
2019-02-18T06:10:31.807Z,21.86
2019-02-18T06:11:31.878Z,21.91
2019-02-18T06:12:31.795Z,21.86
2019-02-18T06:13:31.814Z,22.06
2019-02-18T06:14:31.787Z,22.09
2019-02-18T06:15:32.323Z,22.20
2019-02-18T06:16:32.373Z,22.08
2019-02-18T06:17:31.854Z,22.08
2019-02-18T06:18:31.755Z,22.01
2019-02-18T06:19:31.758Z,21.91
2019-02-18T06:20:32.323Z,21.91
2019-02-18T06:21:32.337Z,21.91
2019-02-18T06:22:31.863Z,21.94
2019-02-18T06:23:31.671Z,21.82
2019-02-18T06:24:31.659Z,21.85
2019-02-18T06:25:32.341Z,21.82
2019-02-18T06:26:31.649Z,21.85
2019-02-18T06:27:32.356Z,21.81
2019-02-18T06:28:31.622Z,21.70
2019-02-18T06:29:31.602Z,21.71
2019-02-18T06:30:32.347Z,21.89
2019-02-18T06:31:32.332Z,21.73
2019-02-18T06:32:32.354Z,21.73
2019-02-18T06:33:32.343Z,21.86
2019-02-18T06:34:31.617Z,21.75
2019-02-18T06:35:31.543Z,21.83
2019-02-18T06:36:32.331Z,21.82
2019-02-18T06:37:32.399Z,21.70
2019-02-18T06:38:32.332Z,21.82
2019-02-18T06:39:40.638Z,21.79
2019-02-18T06:40:33.355Z,21.86
2019-02-18T06:41:32.344Z,21.79
2019-02-18T06:42:31.851Z,21.83
2019-02-18T06:43:31.957Z,21.83
2019-02-18T06:44:32.529Z,21.68
2019-02-18T06:45:31.608Z,21.64
2019-02-18T06:46:32.357Z,21.71
2019-02-18T06:47:32.342Z,21.70
2019-02-18T06:48:31.882Z,21.79
2019-02-18T06:49:32.342Z,21.82
2019-02-18T06:50:31.391Z,21.83
2019-02-18T06:51:32.340Z,21.85
2019-02-18T06:52:32.727Z,21.91
2019-02-18T06:53:32.427Z,21.86
2019-02-18T06:54:31.881Z,21.83
2019-02-18T06:55:31.367Z,21.93
2019-02-18T06:56:31.859Z,21.90
2019-02-18T06:57:31.838Z,22.01
2019-02-18T06:58:31.831Z,22.04
2019-02-18T06:59:31.864Z,22.19
2019-02-18T07:00:31.832Z,22.27
2019-02-18T07:01:31.860Z,22.33
2019-02-18T07:02:31.850Z,22.45
2019-02-18T07:03:31.836Z,22.33
2019-02-18T07:04:31.375Z,22.27
2019-02-18T07:05:31.842Z,22.27
2019-02-18T07:06:31.374Z,22.26
2019-02-18T07:07:31.857Z,22.45
2019-02-18T07:08:31.846Z,22.42
2019-02-18T07:09:31.918Z,22.46
2019-02-18T07:10:32.859Z,22.61
2019-02-18T07:11:31.153Z,22.66
2019-02-18T07:12:31.840Z,22.67
2019-02-18T07:13:31.843Z,22.56
2019-02-18T07:14:31.844Z,22.56
2019-02-18T07:15:31.878Z,22.61
2019-02-18T07:16:31.099Z,22.60
2019-02-18T07:17:31.846Z,22.72
2019-02-18T07:18:31.855Z,22.75
2019-02-18T07:19:31.848Z,22.78
2019-02-18T07:20:31.908Z,22.78
2019-02-18T07:21:31.837Z,22.75
2019-02-18T07:22:31.896Z,22.74
2019-02-18T07:23:31.836Z,22.74
2019-02-18T07:24:31.854Z,22.67
2019-02-18T07:25:31.851Z,22.70
2019-02-18T07:26:32.010Z,22.67
2019-02-18T07:27:31.468Z,22.84
2019-02-18T07:28:31.975Z,22.88
2019-02-18T07:29:34.081Z,22.85
2019-02-18T07:30:31.856Z,23.00
2019-02-18T07:31:31.859Z,22.96
2019-02-18T07:32:31.366Z,22.85
2019-02-18T07:33:31.856Z,22.85
2019-02-18T07:34:31.839Z,22.94
2019-02-18T07:35:31.862Z,22.99
2019-02-18T07:36:31.868Z,22.88
2019-02-18T07:37:30.886Z,22.97
2019-02-18T07:38:30.910Z,23.12
2019-02-18T07:39:31.343Z,23.16
2019-02-18T07:40:31.349Z,23.16
2019-02-18T07:41:31.343Z,23.19
2019-02-18T07:42:30.819Z,23.21
2019-02-18T07:43:30.926Z,23.31
2019-02-18T07:44:31.361Z,23.26
2019-02-18T07:45:31.344Z,23.19
2019-02-18T07:46:31.363Z,23.38
2019-02-18T07:47:32.341Z,23.35
2019-02-18T07:48:31.350Z,23.42
2019-02-18T07:49:31.473Z,23.44
2019-02-18T07:50:31.401Z,23.41
2019-02-18T07:51:30.910Z,23.50
2019-02-18T07:52:31.365Z,23.49
2019-02-18T07:53:30.802Z,23.45
2019-02-18T07:54:31.633Z,23.49
2019-02-18T07:55:31.359Z,23.52
2019-02-18T07:56:30.889Z,23.56
2019-02-18T07:57:31.344Z,23.62
2019-02-18T07:58:30.630Z,23.62
2019-02-18T07:59:31.432Z,23.71
2019-02-18T08:00:31.350Z,23.79
2019-02-18T08:01:30.861Z,23.82
2019-02-18T08:02:35.962Z,23.94
2019-02-18T08:03:30.588Z,23.96
2019-02-18T08:04:31.358Z,24.06
2019-02-18T08:05:30.889Z,24.00
2019-02-18T08:06:31.363Z,24.08
2019-02-18T08:07:31.379Z,24.00
2019-02-18T08:08:30.524Z,24.11
2019-02-18T08:09:30.877Z,24.14
2019-02-18T08:10:31.532Z,24.15
2019-02-18T08:11:31.370Z,24.18
2019-02-18T08:12:31.442Z,24.27
2019-02-18T08:13:30.874Z,24.26
2019-02-18T08:14:31.999Z,24.26
2019-02-18T08:15:30.460Z,24.27
2019-02-18T08:16:32.721Z,24.26
2019-02-18T08:17:31.364Z,24.23
2019-02-18T08:18:32.515Z,24.23
2019-02-18T08:19:31.482Z,24.08
2019-02-18T08:20:33.357Z,24.08
2019-02-18T08:21:32.299Z,24.24
2019-02-18T08:22:31.417Z,24.29
2019-02-18T08:23:32.911Z,24.27
2019-02-18T08:24:30.366Z,24.39
2019-02-18T08:25:30.957Z,24.39
2019-02-18T08:26:30.874Z,24.41
2019-02-18T08:27:30.896Z,24.48
2019-02-18T08:28:30.872Z,24.45
2019-02-18T08:29:30.888Z,24.49
2019-02-18T08:30:30.876Z,24.45
2019-02-18T08:31:30.988Z,24.45
2019-02-18T08:32:30.882Z,24.49
2019-02-18T08:33:30.914Z,24.46
2019-02-18T08:34:30.889Z,24.51
2019-02-18T08:35:30.883Z,24.46
2019-02-18T08:36:30.876Z,24.41
2019-02-18T08:37:30.895Z,24.46
2019-02-18T08:38:30.373Z,24.44
2019-02-18T08:39:30.888Z,24.34
2019-02-18T08:40:30.186Z,24.37
2019-02-18T08:41:30.864Z,24.30
2019-02-18T08:42:30.865Z,24.37
2019-02-18T08:43:30.866Z,24.34
2019-02-18T08:44:30.921Z,24.37
2019-02-18T08:45:30.137Z,24.51
2019-02-18T08:46:30.416Z,24.39
2019-02-18T08:47:30.858Z,24.36
2019-02-18T08:48:30.862Z,24.41
2019-02-18T08:49:31.184Z,24.31
2019-02-18T08:50:30.102Z,24.31
2019-02-18T08:51:30.373Z,24.34
2019-02-18T08:52:31.246Z,24.34
2019-02-18T08:53:30.870Z,24.31
2019-02-18T08:54:30.884Z,24.37
2019-02-18T08:55:30.739Z,24.23
2019-02-18T08:56:30.067Z,24.26
2019-02-18T08:57:31.592Z,24.26
2019-02-18T08:58:33.392Z,24.19
2019-02-18T08:59:32.352Z,24.18
2019-02-18T09:40:30.137Z,24.15
2019-02-18T09:41:30.618Z,24.06
2019-02-18T09:42:30.619Z,24.04
2019-02-18T09:43:30.191Z,23.93
2019-02-18T09:44:32.135Z,23.99
2019-02-18T09:45:30.746Z,24.00
2019-02-18T09:46:32.582Z,24.05
2019-02-18T09:47:31.918Z,24.02
2019-02-18T09:48:36.596Z,23.94
2019-02-18T09:49:33.501Z,24.00
2019-02-18T09:50:30.253Z,23.94
2019-02-18T09:51:30.532Z,23.93
2019-02-18T09:52:30.954Z,23.86
2019-02-18T09:53:29.956Z,23.92
2019-02-18T09:54:31.964Z,23.86
2019-02-18T09:55:30.106Z,23.81
2019-02-18T09:56:30.164Z,23.82
2019-02-18T09:57:32.118Z,23.86
2019-02-18T09:58:32.350Z,23.82
2019-02-18T09:59:35.610Z,23.81
2019-02-18T10:00:36.601Z,23.75
2019-02-18T10:01:35.099Z,23.81
2019-02-18T10:02:35.350Z,23.74
2019-02-18T10:03:33.994Z,23.77
2019-02-18T10:04:34.177Z,23.71
2019-02-18T10:05:35.455Z,23.64
2019-02-18T10:06:48.692Z,23.69
2019-02-18T10:07:33.428Z,23.64
2019-02-18T10:08:32.602Z,23.71
2019-02-18T10:09:31.982Z,23.63
2019-02-18T10:10:34.593Z,23.62
2019-02-18T10:11:31.271Z,23.59
2019-02-18T10:12:30.986Z,23.57
2019-02-18T10:13:32.315Z,23.59
2019-02-18T10:14:32.611Z,23.54
2019-02-18T10:15:29.349Z,23.57
2019-02-18T10:16:41.141Z,23.56
2019-02-18T10:17:31.435Z,23.54
2019-02-18T10:18:38.618Z,23.59
2019-02-18T10:19:49.916Z,23.54
2019-02-18T10:20:33.917Z,23.56
2019-02-18T10:21:33.111Z,23.57
2019-02-18T10:22:32.598Z,23.60
2019-02-18T10:23:31.212Z,23.67
2019-02-18T10:24:34.128Z,23.54
2019-02-18T10:25:30.141Z,23.47
2019-02-18T10:26:30.166Z,23.52
2019-02-18T10:27:36.724Z,23.44
2019-02-18T10:28:36.690Z,23.44
2019-02-18T10:29:32.911Z,23.49
2019-02-18T10:30:33.667Z,23.42
2019-02-18T10:31:37.124Z,23.45
2019-02-18T10:32:33.649Z,23.39
2019-02-18T10:33:30.628Z,23.52
2019-02-18T10:34:33.159Z,23.41
2019-02-18T10:35:29.095Z,23.44
2019-02-18T10:36:29.984Z,23.32
2019-02-18T10:37:29.173Z,23.31
2019-02-18T10:38:29.642Z,23.35
2019-02-18T10:39:29.821Z,23.34
2019-02-18T10:40:31.325Z,23.31
2019-02-18T10:41:29.658Z,23.23
2019-02-18T10:42:29.644Z,23.32
2019-02-18T10:43:32.700Z,23.26
2019-02-18T10:44:35.126Z,23.15
2019-02-18T10:45:43.707Z,23.22
2019-02-18T10:46:31.464Z,23.18
2019-02-18T10:47:30.166Z,23.19
2019-02-18T10:48:48.433Z,23.16
2019-02-18T10:49:31.776Z,23.21
2019-02-18T10:50:33.622Z,23.14
2019-02-18T10:51:34.452Z,23.11
2019-02-18T10:52:29.691Z,23.12
2019-02-18T10:53:29.909Z,23.12
2019-02-18T10:54:30.626Z,23.12
2019-02-18T10:55:31.131Z,23.03
2019-02-18T10:56:31.344Z,23.03
2019-02-18T10:57:31.221Z,23.03
2019-02-18T10:58:30.706Z,22.93
2019-02-18T10:59:30.802Z,22.88
2019-02-18T11:00:33.149Z,22.96
2019-02-18T11:01:30.955Z,22.91
2019-02-18T11:02:31.843Z,22.93
2019-02-18T11:03:32.943Z,22.91
2019-02-18T11:04:29.433Z,22.86
2019-02-18T11:05:32.641Z,22.96
2019-02-18T11:06:32.879Z,22.88
2019-02-18T11:07:31.584Z,22.88
2019-02-18T11:08:31.639Z,22.82
2019-02-18T11:09:30.868Z,22.91
2019-02-18T11:10:32.923Z,22.93
2019-02-18T11:11:30.189Z,22.94
2019-02-18T11:12:31.462Z,22.86
2019-02-18T11:13:33.056Z,22.96
2019-02-18T11:14:31.006Z,22.94
2019-02-18T11:15:30.411Z,23.00
2019-02-18T11:16:31.631Z,23.01
2019-02-18T11:17:38.668Z,23.09
2019-02-18T11:18:29.702Z,23.11
2019-02-18T11:19:29.172Z,22.97
2019-02-18T11:20:29.192Z,23.03
2019-02-18T11:21:29.156Z,23.12
2019-02-18T11:22:32.107Z,23.16
2019-02-18T11:23:34.834Z,23.29
2019-02-18T11:24:29.194Z,23.25
2019-02-18T11:25:29.982Z,23.18
2019-02-18T11:26:30.810Z,23.29
2019-02-18T11:27:30.338Z,23.23
2019-02-18T11:28:30.859Z,23.45
2019-02-18T11:29:33.143Z,23.54
2019-02-18T11:30:43.654Z,23.35
2019-02-18T11:31:33.350Z,23.37
2019-02-18T11:32:28.491Z,23.37
2019-02-18T11:33:29.272Z,23.38
2019-02-18T11:34:29.171Z,23.37
2019-02-18T11:35:29.170Z,23.31
2019-02-18T11:36:29.216Z,23.41
2019-02-18T11:37:28.734Z,23.39
2019-02-18T11:38:29.391Z,23.35
2019-02-18T11:39:29.166Z,23.44
2019-02-18T11:40:29.170Z,23.35
2019-02-18T11:41:29.317Z,23.38
2019-02-18T11:42:29.310Z,23.38
2019-02-18T11:43:28.698Z,23.37
2019-02-18T11:44:29.185Z,23.32
2019-02-18T11:45:29.298Z,23.44
2019-02-18T11:46:29.161Z,23.44
2019-02-18T11:47:29.175Z,23.52
2019-02-18T11:48:28.315Z,23.49
2019-02-18T11:49:29.247Z,23.52
2019-02-18T11:50:29.224Z,23.52
2019-02-18T11:51:29.288Z,23.60
2019-02-18T11:52:29.169Z,23.56
2019-02-18T11:53:28.696Z,23.56
2019-02-18T11:54:29.174Z,23.63
2019-02-18T11:55:29.163Z,23.59
2019-02-18T11:56:29.160Z,23.59
2019-02-18T11:57:31.600Z,23.64
2019-02-18T11:58:28.222Z,23.75
2019-02-18T11:59:29.243Z,23.71
2019-02-18T12:00:29.162Z,23.75
2019-02-18T12:01:28.676Z,23.77
2019-02-18T12:02:28.675Z,23.75
2019-02-18T12:03:28.167Z,23.72
2019-02-18T12:04:28.204Z,23.72
2019-02-18T12:05:28.755Z,23.81
2019-02-18T12:06:28.112Z,23.84
2019-02-18T12:07:28.665Z,23.92
2019-02-18T12:08:28.705Z,23.90
2019-02-18T12:09:28.196Z,23.84
2019-02-18T12:10:28.686Z,23.94
2019-02-18T12:11:37.863Z,23.92
2019-02-18T12:12:29.682Z,23.93
2019-02-18T12:13:28.671Z,23.93
2019-02-18T12:14:28.349Z,23.96
2019-02-18T12:15:28.689Z,23.99
2019-02-18T12:16:28.671Z,24.00
2019-02-18T12:17:28.669Z,23.96
2019-02-18T12:18:28.677Z,24.05
2019-02-18T12:19:27.977Z,23.97
2019-02-18T12:20:28.702Z,24.00
2019-02-18T12:21:28.699Z,23.97
2019-02-18T12:22:28.680Z,23.96
2019-02-18T12:23:28.670Z,23.93
2019-02-18T12:24:28.193Z,24.08
2019-02-18T12:25:27.918Z,23.97
2019-02-18T12:26:28.667Z,24.08
2019-02-18T12:27:28.199Z,23.93
2019-02-18T12:28:28.690Z,24.04
2019-02-18T12:29:28.230Z,24.02
2019-02-18T12:30:28.201Z,24.09
2019-02-18T12:31:28.676Z,24.00
2019-02-18T12:32:28.674Z,24.09
2019-02-18T12:33:27.844Z,24.02
2019-02-18T12:34:28.676Z,24.00
2019-02-18T12:35:31.224Z,23.96
2019-02-18T12:36:29.671Z,23.96
2019-02-18T12:37:30.083Z,24.08
2019-02-18T12:38:28.705Z,24.08
2019-02-18T12:39:28.684Z,24.05
2019-02-18T12:40:28.209Z,24.00
2019-02-18T12:41:28.688Z,24.04
2019-02-18T12:42:28.684Z,23.99
2019-02-18T12:43:30.677Z,24.09
2019-02-18T12:44:28.680Z,23.99
2019-02-18T12:45:28.719Z,24.05
2019-02-18T12:46:28.674Z,23.96
2019-02-18T12:47:28.197Z,24.00
2019-02-18T12:48:28.193Z,24.05
2019-02-18T12:49:28.181Z,24.05
2019-02-18T12:50:29.211Z,24.06
2019-02-18T12:51:28.190Z,24.06
2019-02-18T12:52:28.180Z,23.99
2019-02-18T12:53:28.183Z,24.04
2019-02-18T12:54:28.197Z,24.00
2019-02-18T12:55:28.274Z,24.02
2019-02-18T12:56:28.213Z,24.00
2019-02-18T12:57:28.203Z,23.99
2019-02-18T12:58:28.182Z,23.97
2019-02-18T12:59:28.970Z,23.99
2019-02-18T13:00:27.706Z,24.00
2019-02-18T13:01:27.879Z,23.87
2019-02-18T13:02:28.196Z,23.90
2019-02-18T13:03:28.185Z,23.89
2019-02-18T13:04:28.177Z,23.86
2019-02-18T13:05:28.205Z,23.89
2019-02-18T13:06:27.479Z,23.90
2019-02-18T13:07:28.206Z,23.92
2019-02-18T13:08:28.182Z,23.79
2019-02-18T13:09:28.190Z,23.89
2019-02-18T13:10:34.591Z,23.90
2019-02-18T13:11:29.188Z,23.86
2019-02-18T13:12:28.227Z,23.79
2019-02-18T13:13:28.183Z,23.87
2019-02-18T13:14:30.180Z,23.82
2019-02-18T13:15:27.692Z,23.77
2019-02-18T13:16:28.251Z,23.78
2019-02-18T13:17:28.205Z,23.69
2019-02-18T13:18:28.203Z,23.64
2019-02-18T13:19:28.201Z,23.60
2019-02-18T13:20:28.196Z,23.71
2019-02-18T13:21:28.225Z,23.57
2019-02-18T13:22:27.287Z,23.84
2019-02-18T13:23:28.185Z,23.84
2019-02-18T13:24:28.200Z,23.93
2019-02-18T13:25:28.224Z,23.90
2019-02-18T13:26:28.203Z,23.86
2019-02-18T13:27:27.313Z,23.87
2019-02-18T13:28:28.190Z,23.84
2019-02-18T13:29:27.209Z,23.89
2019-02-18T13:30:28.205Z,23.84
2019-02-18T13:31:27.729Z,23.93
2019-02-18T13:32:27.197Z,23.82